sensor_id;sensor_type;location;lat;lon;timestamp;temperature;humidity
37642;DHT22;23486;51.956;5.888;2023-08-01T00:00:01;16.60;99.90
37642;DHT22;23486;51.956;5.888;2023-08-01T00:02:28;16.60;99.90
37642;DHT22;23486;51.956;5.888;2023-08-01T00:04:54;16.70;99.90
37642;DHT22;23486;51.956;5.888;2023-08-01T00:07:19;16.60;99.90
37642;DHT22;23486;51.956;5.888;2023-08-01T00:09:45;16.60;99.90
37642;DHT22;23486;51.956;5.888;2023-08-01T00:12:10;16.60;99.90
37642;DHT22;23486;51.956;5.888;2023-08-01T00:14:36;16.70;99.90
37642;DHT22;23486;51.956;5.888;2023-08-01T00:17:02;16.70;99.90
37642;DHT22;23486;51.956;5.888;2023-08-01T00:19:28;16.60;99.90
37642;DHT22;23486;51.956;5.888;2023-08-01T00:21:54;16.60;99.90
37642;DHT22;23486;51.956;5.888;2023-08-01T00:24:19;16.60;99.90
37642;DHT22;23486;51.956;5.888;2023-08-01T00:26:45;16.50;99.90
37642;DHT22;23486;51.956;5.888;2023-08-01T00:29:10;16.50;99.90
37642;DHT22;23486;51.956;5.888;2023-08-01T00:31:36;16.50;99.90
37642;DHT22;23486;51.956;5.888;2023-08-01T00:34:01;16.40;99.90
37642;DHT22;23486;51.956;5.888;2023-08-01T00:36:27;16.40;99.90
37642;DHT22;23486;51.956;5.888;2023-08-01T00:38:53;16.40;99.90
37642;DHT22;23486;51.956;5.888;2023-08-01T00:41:19;16.40;99.90
37642;DHT22;23486;51.956;5.888;2023-08-01T00:43:44;16.30;99.90
37642;DHT22;23486;51.956;5.888;2023-08-01T00:46:10;16.30;99.90
37642;DHT22;23486;51.956;5.888;2023-08-01T00:48:35;16.20;99.90
37642;DHT22;23486;51.956;5.888;2023-08-01T00:51:04;16.20;99.90
37642;DHT22;23486;51.956;5.888;2023-08-01T00:53:31;16.20;99.90
37642;DHT22;23486;51.956;5.888;2023-08-01T00:55:57;16.20;99.90
37642;DHT22;23486;51.956;5.888;2023-08-01T00:58:23;16.20;99.90
37642;DHT22;23486;51.956;5.888;2023-08-01T01:00:49;16.10;99.90
37642;DHT22;23486;51.956;5.888;2023-08-01T01:03:15;16.10;99.90
37642;DHT22;23486;51.956;5.888;2023-08-01T01:05:56;16.10;99.90
37642;DHT22;23486;51.956;5.888;2023-08-01T01:08:22;16.10;99.90
37642;DHT22;23486;51.956;5.888;2023-08-01T01:10:48;16.10;99.90
37642;DHT22;23486;51.956;5.888;2023-08-01T01:13:14;16.10;99.90
37642;DHT22;23486;51.956;5.888;2023-08-01T01:15:39;16.10;99.90
37642;DHT22;23486;51.956;5.888;2023-08-01T01:18:05;16.10;99.90
37642;DHT22;23486;51.956;5.888;2023-08-01T01:20:34;16.10;99.90
37642;DHT22;23486;51.956;5.888;2023-08-01T01:23:01;16.10;99.90
37642;DHT22;23486;51.956;5.888;2023-08-01T01:25:29;16.10;99.90
37642;DHT22;23486;51.956;5.888;2023-08-01T01:27:55;16.10;99.90
37642;DHT22;23486;51.956;5.888;2023-08-01T01:30:22;16.10;99.90
37642;DHT22;23486;51.956;5.888;2023-08-01T01:32:48;16.10;99.90
37642;DHT22;23486;51.956;5.888;2023-08-01T01:35:14;16.20;99.90
37642;DHT22;23486;51.956;5.888;2023-08-01T01:37:40;16.10;99.90
37642;DHT22;23486;51.956;5.888;2023-08-01T01:40:06;16.10;99.90
37642;DHT22;23486;51.956;5.888;2023-08-01T01:42:32;16.10;99.90
37642;DHT22;23486;51.956;5.888;2023-08-01T01:44:57;16.10;99.90
37642;DHT22;23486;51.956;5.888;2023-08-01T01:47:23;16.10;99.90
37642;DHT22;23486;51.956;5.888;2023-08-01T01:49:49;16.10;99.90
37642;DHT22;23486;51.956;5.888;2023-08-01T01:52:14;16.10;99.90
37642;DHT22;23486;51.956;5.888;2023-08-01T01:54:40;16.10;99.90
37642;DHT22;23486;51.956;5.888;2023-08-01T01:57:05;16.00;99.90
37642;DHT22;23486;51.956;5.888;2023-08-01T01:59:31;16.00;99.90
37642;DHT22;23486;51.956;5.888;2023-08-01T02:01:57;16.00;99.90
37642;DHT22;23486;51.956;5.888;2023-08-01T02:04:22;15.90;99.90
37642;DHT22;23486;51.956;5.888;2023-08-01T02:06:48;15.80;99.90
37642;DHT22;23486;51.956;5.888;2023-08-01T02:09:13;15.70;99.90
37642;DHT22;23486;51.956;5.888;2023-08-01T02:11:39;15.70;99.90
37642;DHT22;23486;51.956;5.888;2023-08-01T02:14:04;15.70;99.90
37642;DHT22;23486;51.956;5.888;2023-08-01T02:16:30;15.60;99.90
37642;DHT22;23486;51.956;5.888;2023-08-01T02:18:56;15.60;99.90
37642;DHT22;23486;51.956;5.888;2023-08-01T02:21:22;15.50;99.90
37642;DHT22;23486;51.956;5.888;2023-08-01T02:23:47;15.50;99.90
37642;DHT22;23486;51.956;5.888;2023-08-01T02:26:13;15.60;99.90
37642;DHT22;23486;51.956;5.888;2023-08-01T02:28:39;15.50;99.90
37642;DHT22;23486;51.956;5.888;2023-08-01T02:31:04;15.50;99.90
37642;DHT22;23486;51.956;5.888;2023-08-01T02:33:30;15.50;99.90
37642;DHT22;23486;51.956;5.888;2023-08-01T02:35:55;15.40;99.90
37642;DHT22;23486;51.956;5.888;2023-08-01T02:38:21;15.40;99.90
37642;DHT22;23486;51.956;5.888;2023-08-01T02:40:47;15.40;99.90
37642;DHT22;23486;51.956;5.888;2023-08-01T02:43:12;15.40;99.90
37642;DHT22;23486;51.956;5.888;2023-08-01T02:45:38;15.40;99.90
37642;DHT22;23486;51.956;5.888;2023-08-01T02:48:04;15.40;99.90
37642;DHT22;23486;51.956;5.888;2023-08-01T02:50:29;15.40;99.90
37642;DHT22;23486;51.956;5.888;2023-08-01T02:52:55;15.30;99.90
37642;DHT22;23486;51.956;5.888;2023-08-01T02:55:20;15.30;99.90
37642;DHT22;23486;51.956;5.888;2023-08-01T02:57:46;15.30;99.90
37642;DHT22;23486;51.956;5.888;2023-08-01T03:00:12;15.30;99.90
37642;DHT22;23486;51.956;5.888;2023-08-01T03:02:38;15.30;99.90
37642;DHT22;23486;51.956;5.888;2023-08-01T03:05:07;15.30;99.90
37642;DHT22;23486;51.956;5.888;2023-08-01T03:07:33;15.30;99.90
37642;DHT22;23486;51.956;5.888;2023-08-01T03:09:59;15.20;99.90
37642;DHT22;23486;51.956;5.888;2023-08-01T03:12:24;15.30;99.90
37642;DHT22;23486;51.956;5.888;2023-08-01T03:14:50;15.30;99.90
37642;DHT22;23486;51.956;5.888;2023-08-01T03:17:16;15.20;99.90
37642;DHT22;23486;51.956;5.888;2023-08-01T03:19:42;15.30;99.90
37642;DHT22;23486;51.956;5.888;2023-08-01T03:22:09;15.30;99.90
37642;DHT22;23486;51.956;5.888;2023-08-01T03:24:34;15.30;99.90
37642;DHT22;23486;51.956;5.888;2023-08-01T03:27:00;15.40;99.90
37642;DHT22;23486;51.956;5.888;2023-08-01T03:29:26;15.40;99.90
37642;DHT22;23486;51.956;5.888;2023-08-01T03:31:52;15.40;99.90
37642;DHT22;23486;51.956;5.888;2023-08-01T03:34:18;15.40;99.90
37642;DHT22;23486;51.956;5.888;2023-08-01T03:36:44;15.40;99.90
37642;DHT22;23486;51.956;5.888;2023-08-01T03:39:09;15.50;99.90
37642;DHT22;23486;51.956;5.888;2023-08-01T03:41:36;15.50;99.90
37642;DHT22;23486;51.956;5.888;2023-08-01T03:44:02;15.60;99.90
37642;DHT22;23486;51.956;5.888;2023-08-01T03:46:28;15.60;99.90
37642;DHT22;23486;51.956;5.888;2023-08-01T03:48:54;15.70;99.90
37642;DHT22;23486;51.956;5.888;2023-08-01T03:51:19;15.70;99.90
37642;DHT22;23486;51.956;5.888;2023-08-01T03:53:46;15.70;99.90
37642;DHT22;23486;51.956;5.888;2023-08-01T03:56:12;15.60;99.90
37642;DHT22;23486;51.956;5.888;2023-08-01T03:58:37;15.60;99.90
37642;DHT22;23486;51.956;5.888;2023-08-01T04:01:03;15.60;99.90
37642;DHT22;23486;51.956;5.888;2023-08-01T04:03:28;15.60;99.90
37642;DHT22;23486;51.956;5.888;2023-08-01T04:05:54;15.60;99.90
37642;DHT22;23486;51.956;5.888;2023-08-01T04:08:20;15.60;99.90
37642;DHT22;23486;51.956;5.888;2023-08-01T04:10:45;15.60;99.90
37642;DHT22;23486;51.956;5.888;2023-08-01T04:13:11;15.50;99.90
37642;DHT22;23486;51.956;5.888;2023-08-01T04:15:37;15.60;99.90
37642;DHT22;23486;51.956;5.888;2023-08-01T04:18:04;15.60;99.90
37642;DHT22;23486;51.956;5.888;2023-08-01T04:20:29;15.60;99.90
37642;DHT22;23486;51.956;5.888;2023-08-01T04:22:55;15.60;99.90
37642;DHT22;23486;51.956;5.888;2023-08-01T04:25:20;15.60;99.90
37642;DHT22;23486;51.956;5.888;2023-08-01T04:27:49;15.70;99.90
37642;DHT22;23486;51.956;5.888;2023-08-01T04:30:14;15.70;99.90
37642;DHT22;23486;51.956;5.888;2023-08-01T04:32:40;15.60;99.90
37642;DHT22;23486;51.956;5.888;2023-08-01T04:35:06;15.80;99.90
37642;DHT22;23486;51.956;5.888;2023-08-01T04:37:32;15.70;99.90
37642;DHT22;23486;51.956;5.888;2023-08-01T04:39:57;15.70;99.90
37642;DHT22;23486;51.956;5.888;2023-08-01T04:42:23;15.70;99.90
37642;DHT22;23486;51.956;5.888;2023-08-01T04:44:49;15.80;99.90
37642;DHT22;23486;51.956;5.888;2023-08-01T04:47:14;15.70;99.90
37642;DHT22;23486;51.956;5.888;2023-08-01T04:49:40;15.70;99.90
37642;DHT22;23486;51.956;5.888;2023-08-01T04:52:06;15.70;99.90
37642;DHT22;23486;51.956;5.888;2023-08-01T04:54:31;15.70;99.90
37642;DHT22;23486;51.956;5.888;2023-08-01T04:56:57;15.70;99.90
37642;DHT22;23486;51.956;5.888;2023-08-01T04:59:23;15.70;99.90
37642;DHT22;23486;51.956;5.888;2023-08-01T05:01:48;15.70;99.90
37642;DHT22;23486;51.956;5.888;2023-08-01T05:04:14;15.70;99.90
37642;DHT22;23486;51.956;5.888;2023-08-01T05:06:39;15.70;99.90
37642;DHT22;23486;51.956;5.888;2023-08-01T05:09:05;15.70;99.90
37642;DHT22;23486;51.956;5.888;2023-08-01T05:11:32;15.70;99.90
37642;DHT22;23486;51.956;5.888;2023-08-01T05:13:57;15.70;99.90
37642;DHT22;23486;51.956;5.888;2023-08-01T05:16:23;15.80;99.90
37642;DHT22;23486;51.956;5.888;2023-08-01T05:18:49;15.80;99.90
37642;DHT22;23486;51.956;5.888;2023-08-01T05:21:14;15.80;99.90
37642;DHT22;23486;51.956;5.888;2023-08-01T05:23:40;15.70;99.90
37642;DHT22;23486;51.956;5.888;2023-08-01T05:26:05;15.80;99.90
37642;DHT22;23486;51.956;5.888;2023-08-01T05:28:31;15.80;99.90
37642;DHT22;23486;51.956;5.888;2023-08-01T05:30:56;15.90;99.90
37642;DHT22;23486;51.956;5.888;2023-08-01T05:33:22;15.90;99.90
37642;DHT22;23486;51.956;5.888;2023-08-01T05:35:50;16.00;99.90
37642;DHT22;23486;51.956;5.888;2023-08-01T05:38:16;16.10;99.90
37642;DHT22;23486;51.956;5.888;2023-08-01T05:40:41;16.10;99.90
37642;DHT22;23486;51.956;5.888;2023-08-01T05:43:07;16.20;99.90
37642;DHT22;23486;51.956;5.888;2023-08-01T05:45:34;16.20;99.90
37642;DHT22;23486;51.956;5.888;2023-08-01T05:48:00;16.20;99.90
37642;DHT22;23486;51.956;5.888;2023-08-01T05:50:26;16.30;99.90
37642;DHT22;23486;51.956;5.888;2023-08-01T05:52:52;16.30;99.90
37642;DHT22;23486;51.956;5.888;2023-08-01T05:55:17;16.30;99.90
37642;DHT22;23486;51.956;5.888;2023-08-01T05:57:43;16.30;99.90
37642;DHT22;23486;51.956;5.888;2023-08-01T06:00:09;16.40;99.90
37642;DHT22;23486;51.956;5.888;2023-08-01T06:02:34;16.50;99.90
37642;DHT22;23486;51.956;5.888;2023-08-01T06:05:00;16.50;99.90
37642;DHT22;23486;51.956;5.888;2023-08-01T06:07:26;16.60;99.90
37642;DHT22;23486;51.956;5.888;2023-08-01T06:09:51;16.70;99.90
37642;DHT22;23486;51.956;5.888;2023-08-01T06:12:18;16.70;99.90
37642;DHT22;23486;51.956;5.888;2023-08-01T06:14:44;16.70;99.90
37642;DHT22;23486;51.956;5.888;2023-08-01T06:17:10;16.70;99.90
37642;DHT22;23486;51.956;5.888;2023-08-01T06:19:35;16.70;99.90
37642;DHT22;23486;51.956;5.888;2023-08-01T06:22:01;16.70;99.90
37642;DHT22;23486;51.956;5.888;2023-08-01T06:24:26;16.60;99.90
37642;DHT22;23486;51.956;5.888;2023-08-01T06:26:52;16.60;99.90
37642;DHT22;23486;51.956;5.888;2023-08-01T06:29:18;16.60;99.90
37642;DHT22;23486;51.956;5.888;2023-08-01T06:31:43;16.60;99.90
37642;DHT22;23486;51.956;5.888;2023-08-01T06:34:09;16.70;99.90
37642;DHT22;23486;51.956;5.888;2023-08-01T06:36:35;16.70;99.90
37642;DHT22;23486;51.956;5.888;2023-08-01T06:39:01;16.70;99.90
37642;DHT22;23486;51.956;5.888;2023-08-01T06:41:26;16.80;99.90
37642;DHT22;23486;51.956;5.888;2023-08-01T06:43:52;16.80;99.90
37642;DHT22;23486;51.956;5.888;2023-08-01T06:46:18;16.90;99.90
37642;DHT22;23486;51.956;5.888;2023-08-01T06:48:43;16.90;99.90
37642;DHT22;23486;51.956;5.888;2023-08-01T06:51:09;17.00;99.90
37642;DHT22;23486;51.956;5.888;2023-08-01T06:53:34;17.00;99.90
37642;DHT22;23486;51.956;5.888;2023-08-01T06:56:00;17.10;99.90
37642;DHT22;23486;51.956;5.888;2023-08-01T06:58:25;17.10;99.90
37642;DHT22;23486;51.956;5.888;2023-08-01T07:00:51;17.20;99.90
37642;DHT22;23486;51.956;5.888;2023-08-01T07:03:17;17.20;99.90
37642;DHT22;23486;51.956;5.888;2023-08-01T07:05:42;17.30;99.90
37642;DHT22;23486;51.956;5.888;2023-08-01T07:08:08;17.40;99.90
37642;DHT22;23486;51.956;5.888;2023-08-01T07:10:37;17.40;99.90
37642;DHT22;23486;51.956;5.888;2023-08-01T07:13:03;17.40;99.90
37642;DHT22;23486;51.956;5.888;2023-08-01T07:15:30;17.40;99.90
37642;DHT22;23486;51.956;5.888;2023-08-01T07:17:56;17.40;99.90
37642;DHT22;23486;51.956;5.888;2023-08-01T07:20:22;17.50;99.90
37642;DHT22;23486;51.956;5.888;2023-08-01T07:22:48;17.50;99.90
37642;DHT22;23486;51.956;5.888;2023-08-01T07:25:13;17.60;99.90
37642;DHT22;23486;51.956;5.888;2023-08-01T07:27:39;17.70;99.90
37642;DHT22;23486;51.956;5.888;2023-08-01T07:30:05;17.80;99.90
37642;DHT22;23486;51.956;5.888;2023-08-01T07:32:31;17.90;99.90
37642;DHT22;23486;51.956;5.888;2023-08-01T07:34:57;18.00;99.90
37642;DHT22;23486;51.956;5.888;2023-08-01T07:37:23;18.10;99.90
37642;DHT22;23486;51.956;5.888;2023-08-01T07:39:49;18.10;99.90
37642;DHT22;23486;51.956;5.888;2023-08-01T07:42:15;18.10;99.90
37642;DHT22;23486;51.956;5.888;2023-08-01T07:44:41;18.10;99.90
37642;DHT22;23486;51.956;5.888;2023-08-01T07:47:06;18.20;99.90
37642;DHT22;23486;51.956;5.888;2023-08-01T07:49:33;18.10;99.90
37642;DHT22;23486;51.956;5.888;2023-08-01T07:51:59;18.20;99.90
37642;DHT22;23486;51.956;5.888;2023-08-01T07:54:24;18.20;99.90
37642;DHT22;23486;51.956;5.888;2023-08-01T07:56:50;18.20;99.90
37642;DHT22;23486;51.956;5.888;2023-08-01T07:59:16;18.30;99.90
37642;DHT22;23486;51.956;5.888;2023-08-01T08:01:41;18.40;99.90
37642;DHT22;23486;51.956;5.888;2023-08-01T08:04:07;18.50;99.90
37642;DHT22;23486;51.956;5.888;2023-08-01T08:06:33;18.70;99.90
37642;DHT22;23486;51.956;5.888;2023-08-01T08:08:58;18.80;99.90
37642;DHT22;23486;51.956;5.888;2023-08-01T08:11:24;18.90;99.90
37642;DHT22;23486;51.956;5.888;2023-08-01T08:13:49;19.00;99.90
37642;DHT22;23486;51.956;5.888;2023-08-01T08:16:15;19.00;99.90
37642;DHT22;23486;51.956;5.888;2023-08-01T08:18:41;19.00;99.90
37642;DHT22;23486;51.956;5.888;2023-08-01T08:21:07;18.70;99.90
37642;DHT22;23486;51.956;5.888;2023-08-01T08:23:32;18.30;99.90
37642;DHT22;23486;51.956;5.888;2023-08-01T08:25:58;17.90;99.90
37642;DHT22;23486;51.956;5.888;2023-08-01T08:28:28;17.70;99.90
37642;DHT22;23486;51.956;5.888;2023-08-01T08:30:55;17.50;99.90
37642;DHT22;23486;51.956;5.888;2023-08-01T08:33:20;17.40;99.90
37642;DHT22;23486;51.956;5.888;2023-08-01T08:35:47;17.40;99.90
37642;DHT22;23486;51.956;5.888;2023-08-01T08:38:12;17.40;99.90
37642;DHT22;23486;51.956;5.888;2023-08-01T08:40:41;17.50;99.90
37642;DHT22;23486;51.956;5.888;2023-08-01T08:43:09;17.70;99.90
37642;DHT22;23486;51.956;5.888;2023-08-01T08:45:35;17.80;99.90
37642;DHT22;23486;51.956;5.888;2023-08-01T08:48:03;17.90;99.90
37642;DHT22;23486;51.956;5.888;2023-08-01T08:50:33;17.90;99.90
37642;DHT22;23486;51.956;5.888;2023-08-01T08:53:01;18.10;99.90
37642;DHT22;23486;51.956;5.888;2023-08-01T08:55:27;18.30;99.90
37642;DHT22;23486;51.956;5.888;2023-08-01T08:57:54;18.40;99.90
37642;DHT22;23486;51.956;5.888;2023-08-01T09:00:21;18.50;99.90
37642;DHT22;23486;51.956;5.888;2023-08-01T09:02:47;18.60;99.90
37642;DHT22;23486;51.956;5.888;2023-08-01T09:05:12;18.70;99.90
37642;DHT22;23486;51.956;5.888;2023-08-01T09:07:41;18.80;99.90
37642;DHT22;23486;51.956;5.888;2023-08-01T09:10:07;18.90;99.90
37642;DHT22;23486;51.956;5.888;2023-08-01T09:12:36;18.90;99.90
37642;DHT22;23486;51.956;5.888;2023-08-01T09:15:02;19.00;99.90
37642;DHT22;23486;51.956;5.888;2023-08-01T09:17:28;19.10;99.90
37642;DHT22;23486;51.956;5.888;2023-08-01T09:20:04;19.20;99.90
37642;DHT22;23486;51.956;5.888;2023-08-01T09:22:46;19.40;99.90
37642;DHT22;23486;51.956;5.888;2023-08-01T09:25:12;19.40;99.90
37642;DHT22;23486;51.956;5.888;2023-08-01T09:27:38;19.50;99.90
37642;DHT22;23486;51.956;5.888;2023-08-01T09:30:11;19.70;99.90
37642;DHT22;23486;51.956;5.888;2023-08-01T09:32:39;19.80;99.90
37642;DHT22;23486;51.956;5.888;2023-08-01T09:35:05;19.90;99.90
37642;DHT22;23486;51.956;5.888;2023-08-01T09:37:41;19.90;99.90
37642;DHT22;23486;51.956;5.888;2023-08-01T09:40:10;19.90;99.90
37642;DHT22;23486;51.956;5.888;2023-08-01T09:42:44;19.80;99.90
37642;DHT22;23486;51.956;5.888;2023-08-01T09:45:14;19.90;99.90
37642;DHT22;23486;51.956;5.888;2023-08-01T09:47:41;19.90;99.90
37642;DHT22;23486;51.956;5.888;2023-08-01T09:50:09;19.90;99.90
37642;DHT22;23486;51.956;5.888;2023-08-01T09:52:35;19.90;99.90
37642;DHT22;23486;51.956;5.888;2023-08-01T09:55:01;19.80;99.90
37642;DHT22;23486;51.956;5.888;2023-08-01T09:57:29;19.80;99.90
37642;DHT22;23486;51.956;5.888;2023-08-01T09:59:59;19.80;99.90
37642;DHT22;23486;51.956;5.888;2023-08-01T10:02:26;19.80;99.90
37642;DHT22;23486;51.956;5.888;2023-08-01T10:04:57;19.80;99.90
37642;DHT22;23486;51.956;5.888;2023-08-01T10:07:25;19.80;99.90
37642;DHT22;23486;51.956;5.888;2023-08-01T10:09:54;19.80;99.90
37642;DHT22;23486;51.956;5.888;2023-08-01T10:12:22;19.90;99.90
37642;DHT22;23486;51.956;5.888;2023-08-01T10:14:48;20.10;99.90
37642;DHT22;23486;51.956;5.888;2023-08-01T10:17:16;20.10;99.90
37642;DHT22;23486;51.956;5.888;2023-08-01T10:19:42;20.30;99.90
37642;DHT22;23486;51.956;5.888;2023-08-01T10:22:08;20.30;99.90
37642;DHT22;23486;51.956;5.888;2023-08-01T10:24:36;20.30;99.90
37642;DHT22;23486;51.956;5.888;2023-08-01T10:27:12;20.20;99.90
37642;DHT22;23486;51.956;5.888;2023-08-01T10:29:38;20.00;99.90
37642;DHT22;23486;51.956;5.888;2023-08-01T10:32:06;19.90;99.90
37642;DHT22;23486;51.956;5.888;2023-08-01T10:34:32;19.90;99.90
37642;DHT22;23486;51.956;5.888;2023-08-01T10:36:58;20.00;99.90
37642;DHT22;23486;51.956;5.888;2023-08-01T10:39:25;20.20;99.90
37642;DHT22;23486;51.956;5.888;2023-08-01T10:42:04;20.30;99.90
37642;DHT22;23486;51.956;5.888;2023-08-01T10:44:30;20.30;99.90
37642;DHT22;23486;51.956;5.888;2023-08-01T10:47:03;20.40;99.90
37642;DHT22;23486;51.956;5.888;2023-08-01T10:49:39;20.40;99.90
37642;DHT22;23486;51.956;5.888;2023-08-01T10:52:26;20.30;99.90
37642;DHT22;23486;51.956;5.888;2023-08-01T10:55:02;20.20;99.90
37642;DHT22;23486;51.956;5.888;2023-08-01T10:57:29;20.10;99.90
37642;DHT22;23486;51.956;5.888;2023-08-01T10:59:55;20.30;99.90
37642;DHT22;23486;51.956;5.888;2023-08-01T11:02:26;20.50;99.90
37642;DHT22;23486;51.956;5.888;2023-08-01T11:04:59;20.60;99.90
37642;DHT22;23486;51.956;5.888;2023-08-01T11:07:25;20.60;99.90
37642;DHT22;23486;51.956;5.888;2023-08-01T11:10:04;20.70;99.90
37642;DHT22;23486;51.956;5.888;2023-08-01T11:12:34;20.80;99.90
37642;DHT22;23486;51.956;5.888;2023-08-01T11:15:00;20.90;99.90
37642;DHT22;23486;51.956;5.888;2023-08-01T11:17:26;20.90;99.90
37642;DHT22;23486;51.956;5.888;2023-08-01T11:19:51;21.00;99.90
37642;DHT22;23486;51.956;5.888;2023-08-01T11:22:17;21.00;99.90
37642;DHT22;23486;51.956;5.888;2023-08-01T11:24:50;21.00;99.90
37642;DHT22;23486;51.956;5.888;2023-08-01T11:27:16;20.90;99.90
37642;DHT22;23486;51.956;5.888;2023-08-01T11:29:41;20.90;99.90
37642;DHT22;23486;51.956;5.888;2023-08-01T11:32:07;21.00;99.90
37642;DHT22;23486;51.956;5.888;2023-08-01T11:34:40;21.10;99.90
37642;DHT22;23486;51.956;5.888;2023-08-01T11:37:07;21.10;99.90
37642;DHT22;23486;51.956;5.888;2023-08-01T11:39:32;21.20;99.90
37642;DHT22;23486;51.956;5.888;2023-08-01T11:41:59;21.20;99.90
37642;DHT22;23486;51.956;5.888;2023-08-01T11:44:26;21.20;99.90
37642;DHT22;23486;51.956;5.888;2023-08-01T11:46:51;21.10;99.90
37642;DHT22;23486;51.956;5.888;2023-08-01T11:49:17;21.00;99.90
37642;DHT22;23486;51.956;5.888;2023-08-01T11:51:44;21.10;99.90
37642;DHT22;23486;51.956;5.888;2023-08-01T11:54:10;21.40;99.90
37642;DHT22;23486;51.956;5.888;2023-08-01T11:56:37;21.70;99.90
37642;DHT22;23486;51.956;5.888;2023-08-01T11:59:15;21.90;99.90
37642;DHT22;23486;51.956;5.888;2023-08-01T12:01:45;22.00;99.90
37642;DHT22;23486;51.956;5.888;2023-08-01T12:04:11;22.00;99.90
37642;DHT22;23486;51.956;5.888;2023-08-01T12:06:37;22.10;99.90
37642;DHT22;23486;51.956;5.888;2023-08-01T12:09:12;22.20;99.90
37642;DHT22;23486;51.956;5.888;2023-08-01T12:11:39;22.20;99.90
37642;DHT22;23486;51.956;5.888;2023-08-01T12:14:11;22.30;99.90
37642;DHT22;23486;51.956;5.888;2023-08-01T12:16:38;22.40;99.90
37642;DHT22;23486;51.956;5.888;2023-08-01T12:19:04;22.60;99.90
37642;DHT22;23486;51.956;5.888;2023-08-01T12:21:31;22.60;99.90
37642;DHT22;23486;51.956;5.888;2023-08-01T12:23:57;22.40;99.90
37642;DHT22;23486;51.956;5.888;2023-08-01T12:26:23;22.10;99.90
37642;DHT22;23486;51.956;5.888;2023-08-01T12:28:49;21.80;99.90
37642;DHT22;23486;51.956;5.888;2023-08-01T12:31:19;21.60;99.90
37642;DHT22;23486;51.956;5.888;2023-08-01T12:33:45;21.40;99.90
37642;DHT22;23486;51.956;5.888;2023-08-01T12:36:12;21.10;99.90
37642;DHT22;23486;51.956;5.888;2023-08-01T12:38:38;20.90;99.90
37642;DHT22;23486;51.956;5.888;2023-08-01T12:41:03;20.90;99.90
37642;DHT22;23486;51.956;5.888;2023-08-01T12:43:29;21.10;99.90
37642;DHT22;23486;51.956;5.888;2023-08-01T12:45:55;21.20;99.90
37642;DHT22;23486;51.956;5.888;2023-08-01T12:48:24;21.30;99.90
37642;DHT22;23486;51.956;5.888;2023-08-01T12:50:50;21.20;99.90
37642;DHT22;23486;51.956;5.888;2023-08-01T12:53:16;21.00;99.90
37642;DHT22;23486;51.956;5.888;2023-08-01T12:55:48;21.00;99.90
37642;DHT22;23486;51.956;5.888;2023-08-01T12:58:14;21.00;99.90
37642;DHT22;23486;51.956;5.888;2023-08-01T13:00:41;20.90;99.90
37642;DHT22;23486;51.956;5.888;2023-08-01T13:03:07;20.80;99.90
37642;DHT22;23486;51.956;5.888;2023-08-01T13:05:36;20.70;99.90
37642;DHT22;23486;51.956;5.888;2023-08-01T13:08:02;20.80;99.90
37642;DHT22;23486;51.956;5.888;2023-08-01T13:10:32;20.90;99.90
37642;DHT22;23486;51.956;5.888;2023-08-01T13:12:58;20.90;99.90
37642;DHT22;23486;51.956;5.888;2023-08-01T13:15:24;21.00;99.90
37642;DHT22;23486;51.956;5.888;2023-08-01T13:17:50;21.10;99.90
37642;DHT22;23486;51.956;5.888;2023-08-01T13:20:16;21.40;99.90
37642;DHT22;23486;51.956;5.888;2023-08-01T13:22:42;21.50;99.90
37642;DHT22;23486;51.956;5.888;2023-08-01T13:25:08;21.80;99.90
37642;DHT22;23486;51.956;5.888;2023-08-01T13:27:37;22.10;99.90
37642;DHT22;23486;51.956;5.888;2023-08-01T13:30:03;22.20;99.90
37642;DHT22;23486;51.956;5.888;2023-08-01T13:32:28;21.90;99.90
37642;DHT22;23486;51.956;5.888;2023-08-01T13:34:54;21.70;99.90
37642;DHT22;23486;51.956;5.888;2023-08-01T13:37:20;21.60;99.90
37642;DHT22;23486;51.956;5.888;2023-08-01T13:39:45;21.60;99.90
37642;DHT22;23486;51.956;5.888;2023-08-01T13:42:12;21.70;99.90
37642;DHT22;23486;51.956;5.888;2023-08-01T13:44:38;22.00;99.90
37642;DHT22;23486;51.956;5.888;2023-08-01T13:47:04;22.30;99.90
37642;DHT22;23486;51.956;5.888;2023-08-01T13:49:30;22.20;99.90
37642;DHT22;23486;51.956;5.888;2023-08-01T13:51:56;22.10;99.90
37642;DHT22;23486;51.956;5.888;2023-08-01T13:54:21;22.10;99.90
37642;DHT22;23486;51.956;5.888;2023-08-01T13:56:47;22.00;99.90
37642;DHT22;23486;51.956;5.888;2023-08-01T13:59:13;22.10;99.90
37642;DHT22;23486;51.956;5.888;2023-08-01T14:01:39;22.00;99.90
37642;DHT22;23486;51.956;5.888;2023-08-01T14:04:05;21.80;99.90
37642;DHT22;23486;51.956;5.888;2023-08-01T14:06:30;21.70;99.90
37642;DHT22;23486;51.956;5.888;2023-08-01T14:08:56;21.60;99.90
37642;DHT22;23486;51.956;5.888;2023-08-01T14:11:22;21.50;99.90
37642;DHT22;23486;51.956;5.888;2023-08-01T14:13:47;21.60;99.90
37642;DHT22;23486;51.956;5.888;2023-08-01T14:16:13;21.60;99.90
37642;DHT22;23486;51.956;5.888;2023-08-01T14:18:38;21.70;99.90
37642;DHT22;23486;51.956;5.888;2023-08-01T14:21:05;22.00;99.90
37642;DHT22;23486;51.956;5.888;2023-08-01T14:23:31;22.20;99.90
37642;DHT22;23486;51.956;5.888;2023-08-01T14:25:58;22.20;99.90
37642;DHT22;23486;51.956;5.888;2023-08-01T14:28:23;22.50;99.90
37642;DHT22;23486;51.956;5.888;2023-08-01T14:30:50;22.60;99.90
37642;DHT22;23486;51.956;5.888;2023-08-01T14:33:16;22.70;99.90
37642;DHT22;23486;51.956;5.888;2023-08-01T14:35:41;22.90;99.30
37642;DHT22;23486;51.956;5.888;2023-08-01T14:38:08;22.90;99.50
37642;DHT22;23486;51.956;5.888;2023-08-01T14:40:34;22.90;99.00
37642;DHT22;23486;51.956;5.888;2023-08-01T14:43:01;22.90;98.70
37642;DHT22;23486;51.956;5.888;2023-08-01T14:45:27;23.20;99.10
37642;DHT22;23486;51.956;5.888;2023-08-01T14:47:53;23.60;99.40
37642;DHT22;23486;51.956;5.888;2023-08-01T14:50:18;23.70;98.10
37642;DHT22;23486;51.956;5.888;2023-08-01T14:52:44;23.60;96.00
37642;DHT22;23486;51.956;5.888;2023-08-01T14:55:10;23.30;95.70
37642;DHT22;23486;51.956;5.888;2023-08-01T14:57:36;23.30;96.60
37642;DHT22;23486;51.956;5.888;2023-08-01T15:00:02;23.30;96.90
37642;DHT22;23486;51.956;5.888;2023-08-01T15:02:28;23.20;96.80
37642;DHT22;23486;51.956;5.888;2023-08-01T15:04:55;23.00;96.20
37642;DHT22;23486;51.956;5.888;2023-08-01T15:07:25;22.60;95.80
37642;DHT22;23486;51.956;5.888;2023-08-01T15:09:51;22.20;96.10
37642;DHT22;23486;51.956;5.888;2023-08-01T15:12:18;22.00;96.40
37642;DHT22;23486;51.956;5.888;2023-08-01T15:14:50;21.70;96.90
37642;DHT22;23486;51.956;5.888;2023-08-01T15:17:16;21.60;97.40
37642;DHT22;23486;51.956;5.888;2023-08-01T15:19:41;21.50;97.20
37642;DHT22;23486;51.956;5.888;2023-08-01T15:22:07;21.40;97.70
37642;DHT22;23486;51.956;5.888;2023-08-01T15:24:32;21.40;98.00